DLH7WJ EDDF-ENBR
Flight info
| Callsign | DLH7WJ |
|---|---|
| Flight time | N/A |
| Altitude | 24000 |
| Route | MARUN3W/25C MARUN Y152 ARPEG/N0449F380 Z850 ABILU DCT ATPAQ DCT DOROR DCT MITSI DCT BADAB |
| Aircraft | A320/M-SDE3FGHIRWY/LB1 |
Departure
| Time | 2026-04-19 09:31 |
|---|---|
| Airport | Frankfurt Main Airport (EDDF) |
Arrival
| Time | N/A |
|---|---|
| Airport | Bergen Airport, Flesland (ENBR) |
| Time | Latitude | Longitude | Altitude | Speed | Heading |
|---|---|---|---|---|---|
| 2026-04-19 09:00 | 50.04753 | 8.56878 | 322 ft | 0 kts | 295° |
| 2026-04-19 09:21 | 50.04753 | 8.56879 | 348 ft | 0 kts | 295° |
| 2026-04-19 09:21 | 50.04744 | 8.56910 | 357 ft | 4 kts | 295° |
| 2026-04-19 09:22 | 50.04733 | 8.56947 | 357 ft | 4 kts | 291° |
| 2026-04-19 09:22 | 50.04729 | 8.56981 | 360 ft | 4 kts | 232° |
| 2026-04-19 09:22 | 50.04744 | 8.56998 | 360 ft | 4 kts | 205° |
| 2026-04-19 09:22 | 50.04756 | 8.57006 | 360 ft | 0 kts | 205° |
| 2026-04-19 09:26 | 50.04742 | 8.56996 | 359 ft | 5 kts | 205° |
| 2026-04-19 09:26 | 50.04715 | 8.56977 | 353 ft | 4 kts | 205° |
| 2026-04-19 09:26 | 50.04693 | 8.56961 | 354 ft | 3 kts | 204° |
| 2026-04-19 09:26 | 50.04655 | 8.56935 | 359 ft | 9 kts | 204° |
| 2026-04-19 09:27 | 50.04599 | 8.56907 | 351 ft | 9 kts | 193° |
| 2026-04-19 09:27 | 50.04521 | 8.56880 | 349 ft | 11 kts | 192° |
| 2026-04-19 09:27 | 50.04449 | 8.56855 | 353 ft | 10 kts | 192° |
| 2026-04-19 09:27 | 50.04345 | 8.56827 | 349 ft | 19 kts | 189° |
| 2026-04-19 09:28 | 50.04276 | 8.56894 | 352 ft | 12 kts | 90° |
| 2026-04-19 09:28 | 50.04315 | 8.57061 | 355 ft | 23 kts | 67° |
| 2026-04-19 09:28 | 50.04367 | 8.57278 | 355 ft | 18 kts | 69° |
| 2026-04-19 09:28 | 50.04408 | 8.57455 | 352 ft | 17 kts | 69° |
| 2026-04-19 09:29 | 50.04423 | 8.57614 | 353 ft | 14 kts | 115° |
| 2026-04-19 09:29 | 50.04348 | 8.57685 | 350 ft | 12 kts | 155° |
| 2026-04-19 09:29 | 50.04275 | 8.57699 | 352 ft | 10 kts | 215° |
| 2026-04-19 09:29 | 50.04266 | 8.57671 | 351 ft | 0 kts | 248° |
| 2026-04-19 09:30 | 50.04239 | 8.57558 | 355 ft | 41 kts | 250° |
| 2026-04-19 09:31 | 50.04054 | 8.56777 | 352 ft | 109 kts | 249° |
| 2026-04-19 09:31 | 50.03728 | 8.55406 | 399 ft | 155 kts | 253° |
| 2026-04-19 09:31 | 50.03343 | 8.53839 | 1061 ft | 155 kts | 256° |
| 2026-04-19 09:31 | 50.02965 | 8.52264 | 1802 ft | 158 kts | 257° |
| 2026-04-19 09:32 | 50.02534 | 8.50587 | 2215 ft | 180 kts | 246° |
| 2026-04-19 09:32 | 50.01663 | 8.48998 | 2570 ft | 208 kts | 221° |
| 2026-04-19 09:32 | 50.00301 | 8.48046 | 3271 ft | 221 kts | 194° |
| 2026-04-19 09:32 | 49.98776 | 8.47682 | 4123 ft | 222 kts | 192° |
| 2026-04-19 09:33 | 49.97244 | 8.47338 | 4989 ft | 223 kts | 192° |
| 2026-04-19 09:33 | 49.95716 | 8.46905 | 5795 ft | 226 kts | 199° |
| 2026-04-19 09:33 | 49.94130 | 8.46189 | 6251 ft | 247 kts | 200° |
| 2026-04-19 09:33 | 49.92487 | 8.45309 | 7026 ft | 250 kts | 213° |
| 2026-04-19 09:34 | 49.91222 | 8.43546 | 7896 ft | 244 kts | 241° |
| 2026-04-19 09:34 | 49.90652 | 8.41123 | 8834 ft | 239 kts | 266° |
| 2026-04-19 09:34 | 49.90858 | 8.38591 | 9795 ft | 239 kts | 290° |
| 2026-04-19 09:34 | 49.91800 | 8.36452 | 10680 ft | 247 kts | 315° |
| 2026-04-19 09:35 | 49.93320 | 8.35110 | 11479 ft | 259 kts | 331° |
| 2026-04-19 09:35 | 49.95052 | 8.33967 | 11804 ft | 283 kts | 332° |
| 2026-04-19 09:35 | 49.96944 | 8.32738 | 12068 ft | 307 kts | 332° |
| 2026-04-19 09:35 | 49.98972 | 8.31431 | 12547 ft | 321 kts | 332° |
| 2026-04-19 09:36 | 50.01063 | 8.30088 | 13047 ft | 327 kts | 332° |
| 2026-04-19 09:36 | 50.03264 | 8.29055 | 13159 ft | 335 kts | 344° |
| 2026-04-19 09:36 | 50.05607 | 8.28809 | 13181 ft | 343 kts | 357° |
| 2026-04-19 09:36 | 50.08011 | 8.29474 | 13799 ft | 357 kts | 11° |
| 2026-04-19 09:37 | 50.10386 | 8.30709 | 14543 ft | 361 kts | 12° |
| 2026-04-19 09:37 | 50.12778 | 8.31953 | 15251 ft | 364 kts | 13° |
| 2026-04-19 09:37 | 50.15191 | 8.33202 | 15944 ft | 367 kts | 13° |
| 2026-04-19 09:37 | 50.17631 | 8.34469 | 16624 ft | 371 kts | 13° |
| 2026-04-19 09:38 | 50.20123 | 8.35459 | 17274 ft | 367 kts | 360° |
| 2026-04-19 09:38 | 50.22645 | 8.35331 | 17938 ft | 361 kts | 346° |
| 2026-04-19 09:38 | 50.25142 | 8.34785 | 18577 ft | 364 kts | 346° |
| 2026-04-19 09:38 | 50.27660 | 8.34215 | 19179 ft | 367 kts | 345° |
| 2026-04-19 09:39 | 50.30197 | 8.33632 | 19776 ft | 370 kts | 345° |
| 2026-04-19 09:39 | 50.32751 | 8.33045 | 20373 ft | 372 kts | 345° |
| 2026-04-19 09:39 | 50.35324 | 8.32457 | 20997 ft | 375 kts | 346° |
| 2026-04-19 09:39 | 50.37914 | 8.31867 | 21582 ft | 377 kts | 346° |
| 2026-04-19 09:40 | 50.40522 | 8.31276 | 22138 ft | 380 kts | 346° |
| 2026-04-19 09:40 | 50.43149 | 8.30683 | 22703 ft | 383 kts | 346° |
| 2026-04-19 09:40 | 50.45795 | 8.30086 | 23246 ft | 386 kts | 346° |
| 2026-04-19 09:40 | 50.48461 | 8.29483 | 23769 ft | 388 kts | 346° |
| 2026-04-19 09:41 | 50.51147 | 8.28868 | 24201 ft | 391 kts | 346° |
| 2026-04-19 09:41 | 50.53849 | 8.28248 | 24621 ft | 394 kts | 346° |
| 2026-04-19 09:41 | 50.56575 | 8.27624 | 25031 ft | 397 kts | 346° |
| 2026-04-19 09:41 | 50.59315 | 8.26998 | 25436 ft | 400 kts | 347° |
| 2026-04-19 09:42 | 50.62094 | 8.26364 | 25736 ft | 406 kts | 347° |
| 2026-04-19 09:42 | 50.64902 | 8.25724 | 26107 ft | 409 kts | 347° |
| 2026-04-19 09:42 | 50.67729 | 8.25077 | 26496 ft | 412 kts | 347° |
| 2026-04-19 09:42 | 50.70579 | 8.24425 | 26890 ft | 415 kts | 347° |
| 2026-04-19 09:43 | 50.73446 | 8.23768 | 27276 ft | 418 kts | 347° |
| 2026-04-19 09:43 | 50.76332 | 8.23105 | 27661 ft | 420 kts | 347° |
| 2026-04-19 09:43 | 50.79232 | 8.22439 | 28045 ft | 423 kts | 347° |
| 2026-04-19 09:43 | 50.82152 | 8.21768 | 28426 ft | 425 kts | 347° |
| 2026-04-19 09:44 | 50.91384 | 8.19635 | 29547 ft | 433 kts | 347° |
| 2026-04-19 09:44 | 51.03451 | 8.16829 | 30783 ft | 443 kts | 347° |
| 2026-04-19 09:44 | 51.15823 | 8.13930 | 31746 ft | 455 kts | 348° |
| 2026-04-19 09:44 | 51.28310 | 8.11005 | 33355 ft | 450 kts | 347° |
| 2026-04-19 09:45 | 51.40654 | 8.08088 | 34765 ft | 447 kts | 347° |
| 2026-04-19 09:45 | 51.52944 | 8.05170 | 35932 ft | 445 kts | 347° |
| 2026-04-19 09:45 | 51.65213 | 8.02227 | 36926 ft | 446 kts | 348° |
| 2026-04-19 09:45 | 51.77467 | 7.99291 | 37885 ft | 444 kts | 348° |
| 2026-04-19 09:46 | 51.89754 | 7.96346 | 38139 ft | 445 kts | 348° |
| 2026-04-19 09:46 | 52.01970 | 7.93378 | 38290 ft | 442 kts | 348° |
| 2026-04-19 09:46 | 52.14254 | 7.90360 | 38178 ft | 450 kts | 348° |
| 2026-04-19 09:47 | 52.38868 | 7.84316 | 38266 ft | 443 kts | 348° |
| 2026-04-19 09:47 | 52.63520 | 7.78174 | 38072 ft | 453 kts | 349° |
| 2026-04-19 09:47 | 52.75685 | 7.75121 | 38192 ft | 443 kts | 349° |
| 2026-04-19 09:48 | 52.88023 | 7.71992 | 38262 ft | 448 kts | 349° |
| 2026-04-19 09:48 | 53.00396 | 7.68871 | 38107 ft | 451 kts | 349° |
| 2026-04-19 09:48 | 53.12328 | 7.65816 | 38172 ft | 450 kts | 349° |
| 2026-04-19 09:49 | 53.18522 | 7.64230 | 38191 ft | 450 kts | 348° |
| 2026-04-19 09:49 | 53.24716 | 7.62641 | 38193 ft | 450 kts | 349° |
| 2026-04-19 09:50 | 53.30900 | 7.61044 | 38186 ft | 450 kts | 348° |
| 2026-04-19 09:50 | 53.37083 | 7.59441 | 38186 ft | 449 kts | 348° |
| 2026-04-19 09:51 | 53.43262 | 7.57831 | 38194 ft | 449 kts | 349° |
| 2026-04-19 09:51 | 53.49445 | 7.56218 | 38178 ft | 449 kts | 348° |
| 2026-04-19 09:52 | 53.55623 | 7.54601 | 38192 ft | 449 kts | 349° |